createdAt,value
2024-04-01T00:01:41.855Z,32.80
2024-04-01T00:04:08.994Z,33.70
2024-04-01T00:06:36.150Z,25.90
2024-04-01T00:09:03.198Z,35.80
2024-04-01T00:11:30.254Z,31.90
2024-04-01T00:13:57.149Z,28.00
2024-04-01T00:16:24.144Z,25.30
2024-04-01T00:18:51.208Z,31.90
2024-04-01T00:21:17.985Z,27.60
2024-04-01T00:23:47.143Z,31.30
2024-04-01T00:26:14.183Z,41.40
2024-04-01T00:28:41.313Z,33.20
2024-04-01T00:31:08.150Z,24.30
2024-04-01T00:33:35.094Z,27.10
2024-04-01T00:36:02.061Z,39.00
2024-04-01T00:38:29.325Z,29.80
2024-04-01T00:40:56.448Z,33.80
2024-04-01T00:43:23.628Z,28.50
2024-04-01T00:45:50.534Z,31.50
2024-04-01T00:48:17.488Z,30.60
2024-04-01T00:50:46.882Z,42.40
2024-04-01T00:53:13.827Z,35.90
2024-04-01T00:55:42.306Z,32.70
2024-04-01T00:58:09.355Z,29.30
2024-04-01T01:00:36.394Z,29.30
2024-04-01T01:03:03.751Z,34.60
2024-04-01T01:05:31.420Z,37.20
2024-04-01T01:07:58.358Z,28.30
2024-04-01T01:10:25.237Z,34.80
2024-04-01T01:12:52.355Z,41.20
2024-04-01T01:15:19.293Z,40.30
2024-04-01T01:17:46.443Z,29.00
2024-04-01T01:20:13.502Z,32.10
2024-04-01T01:22:41.384Z,34.30
2024-04-01T01:25:09.351Z,31.40
2024-04-01T01:27:40.604Z,29.40
2024-04-01T01:30:16.116Z,39.80
2024-04-01T01:32:46.448Z,39.70
2024-04-01T01:35:14.818Z,32.00
2024-04-01T01:37:41.863Z,34.40
2024-04-01T01:40:12.012Z,29.60
2024-04-01T01:42:38.933Z,34.30
2024-04-01T01:45:06.915Z,36.60
2024-04-01T01:47:35.607Z,36.10
2024-04-01T01:50:04.187Z,26.40
2024-04-01T01:52:31.442Z,28.50
2024-04-01T01:54:58.369Z,27.10
2024-04-01T01:57:25.817Z,26.50
2024-04-01T01:59:52.667Z,22.60
2024-04-01T02:02:19.605Z,25.80
2024-04-01T02:04:46.652Z,22.50
2024-04-01T02:07:13.698Z,25.00
2024-04-01T02:09:40.845Z,28.70
2024-04-01T02:12:10.453Z,21.80
2024-04-01T02:14:40.410Z,27.20
2024-04-01T02:17:10.588Z,21.20
2024-04-01T02:19:37.637Z,28.20
2024-04-01T02:22:04.690Z,21.80
2024-04-01T02:24:31.737Z,25.00
2024-04-01T02:26:58.571Z,18.80
2024-04-01T02:29:25.565Z,23.80
2024-04-01T02:31:52.360Z,29.90
2024-04-01T02:34:19.222Z,21.30
2024-04-01T02:36:46.244Z,22.20
2024-04-01T02:39:17.498Z,25.10
2024-04-01T02:41:48.134Z,31.40
2024-04-01T02:44:15.176Z,26.60
2024-04-01T02:46:42.428Z,23.30
2024-04-01T02:49:12.462Z,22.80
2024-04-01T02:51:39.590Z,27.90
2024-04-01T02:54:06.736Z,27.00
2024-04-01T02:56:34.114Z,26.70
2024-04-01T02:59:04.860Z,32.10
2024-04-01T03:01:31.976Z,30.50
2024-04-01T03:04:01.994Z,24.30
2024-04-01T03:06:29.754Z,26.70
2024-04-01T03:08:57.324Z,26.90
2024-04-01T03:11:24.224Z,27.80
2024-04-01T03:13:51.307Z,24.20
2024-04-01T03:16:21.439Z,27.50
2024-04-01T03:18:48.374Z,23.50
2024-04-01T03:21:15.656Z,28.20
2024-04-01T03:23:43.897Z,20.50
2024-04-01T03:26:10.944Z,19.50
2024-04-01T03:28:38.122Z,27.80
2024-04-01T03:31:06.597Z,26.10
2024-04-01T03:33:34.852Z,19.50
2024-04-01T03:36:01.807Z,24.30
2024-04-01T03:38:28.848Z,25.00
2024-04-01T03:40:55.989Z,20.70
2024-04-01T03:43:23.249Z,29.00
2024-04-01T03:46:00.130Z,22.70
2024-04-01T03:48:27.167Z,27.80
2024-04-01T03:50:54.110Z,26.60
2024-04-01T03:53:21.213Z,28.00
2024-04-01T03:56:10.653Z,29.00
2024-04-01T03:58:37.678Z,28.70
2024-04-01T04:01:04.621Z,22.10
2024-04-01T04:03:31.532Z,29.20
2024-04-01T04:05:58.430Z,29.40
2024-04-01T04:08:25.558Z,29.90
2024-04-01T04:10:52.645Z,21.80
2024-04-01T04:13:19.657Z,26.60
2024-04-01T04:15:46.721Z,28.10
2024-04-01T04:18:13.655Z,21.50
2024-04-01T04:20:40.816Z,28.40
2024-04-01T04:23:07.755Z,26.20
2024-04-01T04:25:34.782Z,25.00
2024-04-01T04:28:01.846Z,22.00
2024-04-01T04:30:28.874Z,23.20
2024-04-01T04:32:55.973Z,26.20
2024-04-01T04:35:22.883Z,26.70
2024-04-01T04:37:49.810Z,23.60
2024-04-01T04:40:16.760Z,22.00
2024-04-01T04:42:45.055Z,24.40
2024-04-01T04:45:12.181Z,22.20
2024-04-01T04:47:39.025Z,23.80
2024-04-01T04:50:07.073Z,26.40
2024-04-01T04:52:34.343Z,25.50
2024-04-01T04:55:01.343Z,22.70
2024-04-01T04:57:28.745Z,24.20
2024-04-01T04:59:55.694Z,20.20
2024-04-01T05:02:22.634Z,22.70
2024-04-01T05:04:50.006Z,30.00
2024-04-01T05:07:17.560Z,20.90
2024-04-01T05:09:44.598Z,26.20
2024-04-01T05:12:11.861Z,20.90
2024-04-01T05:14:38.790Z,25.10
2024-04-01T05:17:05.757Z,28.00
2024-04-01T05:19:32.914Z,28.10
2024-04-01T05:22:00.073Z,24.60
2024-04-01T05:24:26.986Z,28.80
2024-04-01T05:26:54.025Z,22.30
2024-04-01T05:29:20.983Z,21.70
2024-04-01T05:31:48.020Z,17.10
2024-04-01T05:34:15.051Z,17.80
2024-04-01T05:36:41.912Z,18.80
2024-04-01T05:39:08.875Z,18.80
2024-04-01T05:41:35.804Z,22.80
2024-04-01T05:44:02.842Z,24.00
2024-04-01T05:46:30.403Z,20.00
2024-04-01T05:48:57.483Z,23.80
2024-04-01T05:51:25.321Z,29.50
2024-04-01T05:53:52.370Z,21.50
2024-04-01T05:56:19.327Z,19.40
2024-04-01T05:58:46.352Z,20.50
2024-04-01T06:01:13.415Z,16.20
2024-04-01T06:03:40.856Z,20.10
2024-04-01T06:06:07.910Z,24.70
2024-04-01T06:08:34.964Z,15.90
2024-04-01T06:11:02.530Z,16.50
2024-04-01T06:13:29.785Z,19.20
2024-04-01T06:15:57.041Z,18.10
2024-04-01T06:18:24.777Z,21.70
2024-04-01T06:20:51.827Z,15.10
2024-04-01T06:23:18.976Z,19.30
2024-04-01T06:25:47.455Z,16.10
2024-04-01T06:28:14.612Z,16.10
2024-04-01T06:30:41.863Z,13.80
2024-04-01T06:33:08.797Z,15.80
2024-04-01T06:35:37.988Z,17.70
2024-04-01T06:38:06.398Z,16.80
2024-04-01T06:40:37.113Z,18.40
2024-04-01T06:43:04.281Z,18.50
2024-04-01T06:45:31.205Z,15.60
2024-04-01T06:47:58.610Z,15.40
2024-04-01T06:50:25.918Z,21.60
2024-04-01T06:52:53.066Z,17.30
2024-04-01T06:55:19.885Z,17.90
2024-04-01T06:57:46.870Z,15.30
2024-04-01T07:00:15.804Z,14.60
2024-04-01T07:02:42.764Z,17.00
2024-04-01T07:05:09.763Z,16.20
2024-04-01T07:07:36.842Z,18.40
2024-04-01T07:10:04.443Z,12.40
2024-04-01T07:12:32.668Z,15.90
2024-04-01T07:14:59.679Z,27.10
2024-04-01T07:17:26.712Z,17.40
2024-04-01T07:19:53.747Z,13.50
2024-04-01T07:22:20.811Z,13.20
2024-04-01T07:24:48.166Z,20.60
2024-04-01T07:27:15.222Z,15.60
2024-04-01T07:29:42.248Z,19.60
2024-04-01T07:32:09.416Z,15.10
2024-04-01T07:34:36.353Z,19.30
2024-04-01T07:37:03.921Z,12.90
2024-04-01T07:39:31.048Z,10.10
2024-04-01T07:41:58.297Z,15.10
2024-04-01T07:44:25.445Z,12.40
2024-04-01T07:46:52.605Z,14.90
2024-04-01T07:49:19.771Z,14.90
2024-04-01T07:51:46.796Z,13.80
2024-04-01T07:54:13.839Z,13.40
2024-04-01T07:56:41.499Z,19.50
2024-04-01T07:59:08.937Z,11.90
2024-04-01T08:01:36.129Z,14.20
2024-04-01T08:04:03.161Z,15.20
2024-04-01T08:06:30.404Z,12.50
2024-04-01T08:08:57.455Z,14.60
2024-04-01T08:11:24.552Z,15.70
2024-04-01T08:13:51.752Z,16.20
2024-04-01T08:16:18.799Z,14.50
2024-04-01T08:18:45.846Z,16.70
2024-04-01T08:21:12.890Z,16.00
2024-04-01T08:23:39.940Z,13.40
2024-04-01T08:26:07.091Z,16.90
2024-04-01T08:28:34.350Z,15.80
2024-04-01T08:31:01.710Z,13.80
2024-04-01T08:33:30.184Z,13.90
2024-04-01T08:35:58.253Z,14.20
2024-04-01T08:38:25.710Z,12.80
2024-04-01T08:41:05.865Z,13.40
2024-04-01T08:43:40.447Z,13.00
2024-04-01T08:46:07.427Z,13.80
2024-04-01T08:48:34.574Z,13.90
2024-04-01T08:51:05.630Z,13.60
2024-04-01T08:56:11.075Z,9.80
2024-04-01T08:58:39.071Z,14.90
2024-04-01T09:01:05.993Z,13.30
2024-04-01T09:03:33.052Z,14.00
2024-04-01T09:06:00.030Z,14.70
2024-04-01T09:08:28.049Z,16.20
2024-04-01T09:10:55.098Z,13.40
2024-04-01T09:13:22.146Z,16.10
2024-04-01T09:15:49.188Z,14.80
2024-04-01T09:18:16.574Z,17.30
2024-04-01T09:20:44.818Z,12.20
2024-04-01T09:23:11.976Z,23.30
2024-04-01T09:25:39.051Z,14.40
2024-04-01T09:28:06.778Z,14.40
2024-04-01T09:30:34.652Z,14.30
2024-04-01T09:33:01.700Z,11.80
2024-04-01T09:35:29.146Z,12.90
2024-04-01T09:37:56.196Z,13.40
2024-04-01T09:40:23.246Z,11.30
2024-04-01T09:42:50.397Z,12.40
2024-04-01T09:45:17.644Z,15.30
2024-04-01T09:47:44.795Z,16.70
2024-04-01T09:50:11.854Z,10.50
2024-04-01T09:52:38.872Z,15.60
2024-04-01T09:55:06.956Z,11.90
2024-04-01T09:57:52.849Z,13.30
2024-04-01T10:00:20.413Z,20.20
2024-04-01T10:03:07.849Z,17.80
2024-04-01T10:05:53.830Z,15.90
2024-04-01T10:08:58.370Z,11.80
2024-04-01T10:11:43.420Z,17.10
2024-04-01T10:14:25.623Z,16.00
2024-04-01T10:17:13.149Z,15.20
2024-04-01T10:20:07.967Z,14.30
2024-04-01T10:22:54.038Z,12.70
2024-04-01T10:25:42.383Z,14.00
2024-04-01T10:28:38.010Z,15.70
2024-04-01T10:31:28.913Z,11.10
2024-04-01T10:34:33.637Z,14.50
2024-04-01T10:37:06.315Z,15.50
2024-04-01T10:39:48.528Z,18.10
2024-04-01T10:42:27.554Z,12.10
2024-04-01T10:45:13.434Z,10.20
2024-04-01T10:48:07.515Z,16.60
2024-04-01T10:50:43.676Z,13.10
2024-04-01T10:53:48.510Z,16.40
2024-04-01T10:56:46.994Z,16.00
2024-04-01T10:59:32.180Z,14.60
2024-04-01T11:02:23.944Z,10.80
2024-04-01T11:07:38.591Z,12.60
2024-04-01T11:10:43.907Z,14.80
2024-04-01T11:13:12.760Z,16.20
2024-04-01T11:15:40.468Z,11.60
2024-04-01T11:18:22.386Z,12.90
2024-04-01T11:21:08.760Z,12.00
2024-04-01T11:24:14.512Z,13.70
2024-04-01T11:26:49.868Z,15.90
2024-04-01T11:29:36.684Z,13.60
2024-04-01T11:32:07.914Z,12.40
2024-04-01T11:34:57.893Z,14.80
2024-04-01T11:37:40.341Z,14.30
2024-04-01T11:40:09.315Z,11.00
2024-04-01T11:42:41.073Z,15.00
2024-04-01T11:45:09.861Z,15.40
2024-04-01T11:47:41.003Z,9.50
2024-04-01T11:50:21.073Z,12.20
2024-04-01T11:53:01.900Z,18.50
2024-04-01T11:55:29.358Z,16.60
2024-04-01T11:58:16.633Z,20.40
2024-04-01T12:00:54.372Z,17.70
2024-04-01T12:03:22.380Z,13.10
2024-04-01T12:05:50.829Z,19.70
2024-04-01T12:08:31.267Z,13.70
2024-04-01T12:11:00.344Z,21.40
2024-04-01T12:13:28.158Z,21.60
2024-04-01T12:15:55.500Z,15.70
2024-04-01T12:18:22.646Z,18.50
2024-04-01T12:20:56.795Z,11.80
2024-04-01T12:23:26.574Z,11.70
2024-04-01T12:26:05.357Z,10.30
2024-04-01T12:28:32.566Z,15.60
2024-04-01T12:30:59.597Z,17.50
2024-04-01T12:33:30.120Z,18.40
2024-04-01T12:35:57.781Z,14.70
2024-04-01T12:38:24.937Z,22.60
2024-04-01T12:40:52.403Z,18.40
2024-04-01T12:43:25.069Z,17.60
2024-04-01T12:45:53.052Z,17.80
2024-04-01T12:48:20.696Z,18.90
2024-04-01T12:50:51.231Z,18.20
2024-04-01T12:53:40.244Z,14.00
2024-04-01T12:56:17.882Z,20.60
2024-04-01T12:59:04.363Z,15.00
2024-04-01T13:01:54.884Z,17.70
2024-04-01T13:04:45.715Z,16.20
2024-04-01T13:07:25.329Z,18.70
2024-04-01T13:10:05.909Z,17.00
2024-04-01T13:13:14.411Z,23.90
2024-04-01T13:15:49.967Z,16.40
2024-04-01T13:18:30.073Z,15.60
2024-04-01T13:21:07.082Z,21.40
2024-04-01T13:23:46.633Z,15.60
2024-04-01T13:26:22.002Z,21.70
2024-04-01T13:28:53.427Z,15.80
2024-04-01T13:31:29.308Z,17.00
2024-04-01T13:34:07.904Z,14.90
2024-04-01T13:36:49.279Z,22.70
2024-04-01T13:39:46.242Z,21.40
2024-04-01T13:42:34.880Z,19.80
2024-04-01T13:45:24.149Z,16.60
2024-04-01T13:48:09.736Z,17.20
2024-04-01T13:50:55.418Z,20.50
2024-04-01T13:53:34.984Z,17.10
2024-04-01T13:56:33.356Z,22.10
2024-04-01T13:59:14.018Z,17.10
2024-04-01T14:01:54.868Z,16.10
2024-04-01T14:04:40.246Z,15.20
2024-04-01T14:07:26.031Z,23.60
2024-04-01T14:10:09.462Z,18.70
2024-04-01T14:12:52.178Z,20.20
2024-04-01T14:15:42.794Z,23.10
2024-04-01T14:18:18.382Z,15.50
2024-04-01T14:20:46.920Z,16.50
2024-04-01T14:23:13.952Z,16.00
2024-04-01T14:25:50.366Z,14.70
2024-04-01T14:28:18.604Z,16.20
2024-04-01T14:30:46.233Z,16.70
2024-04-01T14:33:17.557Z,21.60
2024-04-01T14:35:45.323Z,21.20
2024-04-01T14:38:14.779Z,15.80
2024-04-01T14:40:42.327Z,19.20
2024-04-01T14:43:12.465Z,23.00
2024-04-01T14:45:39.595Z,22.30
2024-04-01T14:48:07.574Z,18.00
2024-04-01T14:50:35.637Z,16.40
2024-04-01T14:53:03.705Z,24.50
2024-04-01T14:55:34.030Z,18.60
2024-04-01T14:58:01.049Z,18.40
2024-04-01T15:00:28.152Z,20.50
2024-04-01T15:02:55.280Z,17.80
2024-04-01T15:05:25.505Z,18.80
2024-04-01T15:07:52.601Z,17.40
2024-04-01T15:10:19.997Z,19.60
2024-04-01T15:12:47.167Z,17.20
2024-04-01T15:15:16.085Z,15.90
2024-04-01T15:17:43.082Z,18.90
2024-04-01T15:20:10.746Z,20.20
2024-04-01T15:22:38.221Z,18.90
2024-04-01T15:25:06.179Z,16.70
2024-04-01T15:27:35.249Z,17.20
2024-04-01T15:30:02.213Z,12.90
2024-04-01T15:32:29.364Z,19.60
2024-04-01T15:34:56.615Z,13.90
2024-04-01T15:37:27.321Z,23.00
2024-04-01T15:39:55.430Z,20.00
2024-04-01T15:42:22.465Z,18.10
2024-04-01T15:44:49.526Z,20.40
2024-04-01T15:47:16.779Z,19.70
2024-04-01T15:49:45.343Z,23.90
2024-04-01T15:52:12.292Z,20.90
2024-04-01T15:54:39.360Z,22.80
2024-04-01T15:57:06.383Z,18.50
2024-04-01T15:59:33.541Z,18.50
2024-04-01T16:02:00.787Z,20.20
2024-04-01T16:04:27.969Z,23.10
2024-04-01T16:06:54.893Z,18.90
2024-04-01T16:09:21.946Z,19.40
2024-04-01T16:11:49.174Z,21.40
2024-04-01T16:14:22.467Z,17.30
2024-04-01T16:16:50.853Z,16.00
2024-04-01T16:19:19.328Z,14.70
2024-04-01T16:21:49.247Z,22.10
2024-04-01T16:24:17.929Z,20.70
2024-04-01T16:26:49.698Z,26.10
2024-04-01T16:29:20.191Z,24.00
2024-04-01T16:31:47.467Z,22.00
2024-04-01T16:34:14.631Z,20.50
2024-04-01T16:36:43.299Z,20.20
2024-04-01T16:39:10.356Z,25.80
2024-04-01T16:41:37.291Z,22.80
2024-04-01T16:44:04.464Z,20.90
2024-04-01T16:46:31.812Z,23.00
2024-04-01T16:48:58.840Z,24.00
2024-04-01T16:51:28.456Z,17.10
2024-04-01T16:53:55.513Z,21.80
2024-04-01T16:56:22.648Z,20.20
2024-04-01T16:58:49.694Z,19.20
2024-04-01T17:01:16.838Z,22.80
2024-04-01T17:03:44.097Z,16.00
2024-04-01T17:06:11.139Z,22.40
2024-04-01T17:08:38.187Z,19.70
2024-04-01T17:11:05.235Z,21.60
2024-04-01T17:13:33.512Z,17.70
2024-04-01T17:16:00.660Z,20.80
2024-04-01T17:18:27.735Z,19.50
2024-04-01T17:20:55.757Z,17.80
2024-04-01T17:23:22.964Z,25.90
2024-04-01T17:25:50.082Z,24.50
2024-04-01T17:28:18.652Z,14.10
2024-04-01T17:30:47.356Z,21.50
2024-04-01T17:33:15.207Z,19.50
2024-04-01T17:35:42.360Z,22.00
2024-04-01T17:38:09.527Z,21.30
2024-04-01T17:40:38.040Z,25.00
2024-04-01T17:43:05.036Z,22.50
2024-04-01T17:45:32.084Z,21.10
2024-04-01T17:47:59.434Z,21.20
2024-04-01T17:50:27.026Z,22.60
2024-04-01T17:52:55.442Z,19.30
2024-04-01T17:55:22.730Z,17.70
2024-04-01T17:57:50.080Z,16.20
2024-04-01T18:00:17.354Z,31.20
2024-04-01T18:02:45.505Z,21.30
2024-04-01T18:05:12.657Z,18.40
2024-04-01T18:07:40.024Z,17.00
2024-04-01T18:10:07.680Z,23.00
2024-04-01T18:12:34.825Z,23.50
2024-04-01T18:15:03.781Z,21.60
2024-04-01T18:17:31.305Z,18.70
2024-04-01T18:19:58.269Z,24.10
2024-04-01T18:22:26.694Z,25.70
2024-04-01T18:24:54.996Z,20.90
2024-04-01T18:27:22.236Z,17.60
2024-04-01T18:29:57.252Z,19.90
2024-04-01T18:32:24.759Z,21.60
2024-04-01T18:34:58.530Z,23.70
2024-04-01T18:37:25.769Z,24.30
2024-04-01T18:39:53.530Z,21.60
2024-04-01T18:42:20.583Z,27.20
2024-04-01T18:44:47.746Z,24.70
2024-04-01T18:47:15.407Z,24.50
2024-04-01T18:49:42.660Z,20.80
2024-04-01T18:52:29.988Z,16.20
2024-04-01T18:54:59.169Z,22.60
2024-04-01T18:57:38.344Z,21.10
2024-04-01T19:00:06.941Z,21.10
2024-04-01T19:02:34.228Z,22.30
2024-04-01T19:05:01.333Z,35.20
2024-04-01T19:07:28.527Z,20.60
2024-04-01T19:09:55.984Z,25.40
2024-04-01T19:12:23.236Z,20.00
2024-04-01T19:14:51.678Z,18.90
2024-04-01T19:17:18.561Z,18.60
2024-04-01T19:19:45.612Z,18.70
2024-04-01T19:22:13.368Z,18.90
2024-04-01T19:24:41.135Z,24.90
2024-04-01T19:27:08.391Z,24.30
2024-04-01T19:29:36.582Z,23.00
2024-04-01T19:32:03.915Z,20.80
2024-04-01T19:34:31.085Z,21.50
2024-04-01T19:36:58.209Z,21.10
2024-04-01T19:39:25.360Z,19.40
2024-04-01T19:41:53.140Z,28.20
2024-04-01T19:44:21.965Z,22.30
2024-04-01T19:46:49.071Z,25.00
2024-04-01T19:49:16.209Z,19.30
2024-04-01T19:51:43.384Z,24.30
2024-04-01T19:54:10.427Z,22.50
2024-04-01T19:56:38.378Z,23.50
2024-04-01T19:59:14.138Z,21.50
2024-04-01T20:01:42.523Z,16.30
2024-04-01T20:04:18.114Z,17.80
2024-04-01T20:06:45.825Z,21.80
2024-04-01T20:09:19.020Z,28.30
2024-04-01T20:11:46.277Z,25.50
2024-04-01T20:14:17.105Z,30.70
2024-04-01T20:16:44.142Z,24.60
2024-04-01T20:19:11.802Z,19.80
2024-04-01T20:21:38.951Z,21.90
2024-04-01T20:24:23.257Z,22.60
2024-04-01T20:26:51.288Z,25.70
2024-04-01T20:29:19.308Z,27.40
2024-04-01T20:31:46.491Z,26.90
2024-04-01T20:34:13.744Z,25.30
2024-04-01T20:36:41.405Z,30.50
2024-04-01T20:39:08.536Z,20.40
2024-04-01T20:41:35.404Z,26.60
2024-04-01T20:44:02.624Z,22.50
2024-04-01T20:46:31.539Z,21.90
2024-04-01T20:48:59.097Z,22.50
2024-04-01T20:51:26.451Z,27.90
2024-04-01T20:54:21.107Z,21.30
2024-04-01T20:56:40.815Z,23.40
2024-04-01T20:59:21.493Z,24.80
2024-04-01T21:01:48.941Z,28.10
2024-04-01T21:04:17.962Z,22.40
2024-04-01T21:06:49.073Z,22.90
2024-04-01T21:09:16.138Z,25.40
2024-04-01T21:11:43.596Z,25.30
2024-04-01T21:14:11.044Z,23.70
2024-04-01T21:16:38.105Z,28.40
2024-04-01T21:19:05.440Z,23.20
2024-04-01T21:21:32.491Z,18.30
2024-04-01T21:23:59.653Z,25.00
2024-04-01T21:26:26.788Z,30.60
2024-04-01T21:28:53.846Z,22.90
2024-04-01T21:31:21.416Z,23.20
2024-04-01T21:33:49.893Z,21.40
2024-04-01T21:36:16.922Z,29.80
2024-04-01T21:38:43.998Z,25.50
2024-04-01T21:41:10.922Z,18.70
2024-04-01T21:43:38.261Z,30.50
2024-04-01T21:46:05.214Z,28.60
2024-04-01T21:48:32.873Z,26.50
2024-04-01T21:51:00.031Z,24.00
2024-04-01T21:53:27.890Z,26.70
2024-04-01T21:55:54.853Z,21.00
2024-04-01T21:58:21.980Z,26.00
2024-04-01T22:00:48.847Z,21.60
2024-04-01T22:03:15.971Z,23.30
2024-04-01T22:05:43.018Z,28.20
2024-04-01T22:08:11.206Z,17.60
2024-04-01T22:10:41.127Z,19.40
2024-04-01T22:13:08.153Z,21.20
2024-04-01T22:15:35.205Z,26.40
2024-04-01T22:18:02.041Z,21.10
2024-04-01T22:20:29.702Z,23.80
2024-04-01T22:22:56.651Z,23.50
2024-04-01T22:25:25.644Z,28.50
2024-04-01T22:27:52.486Z,24.90
2024-04-01T22:30:20.746Z,20.10
2024-04-01T22:32:49.031Z,20.40
2024-04-01T22:35:15.879Z,21.50
2024-04-01T22:37:42.926Z,23.10
2024-04-01T22:40:10.593Z,22.90
2024-04-01T22:42:37.532Z,25.10
2024-04-01T22:45:06.124Z,23.30
2024-04-01T22:47:34.196Z,21.70
2024-04-01T22:50:01.201Z,24.70
2024-04-01T22:52:28.203Z,23.50
2024-04-01T22:54:55.221Z,22.20
2024-04-01T22:57:22.169Z,17.70
2024-04-01T22:59:49.122Z,25.00
2024-04-01T23:02:16.170Z,23.20
2024-04-01T23:04:43.511Z,25.70
2024-04-01T23:07:10.586Z,22.60
2024-04-01T23:09:37.850Z,23.30
2024-04-01T23:12:05.270Z,24.20
2024-04-01T23:14:36.425Z,26.80
2024-04-01T23:17:07.551Z,28.00
2024-04-01T23:19:34.598Z,21.80
2024-04-01T23:22:01.441Z,23.40
2024-04-01T23:24:28.695Z,25.40
2024-04-01T23:26:55.738Z,26.90
2024-04-01T23:29:22.801Z,29.20
2024-04-01T23:31:51.963Z,29.30
2024-04-01T23:34:18.929Z,22.90
2024-04-01T23:36:46.180Z,23.80
2024-04-01T23:39:13.435Z,27.50
2024-04-01T23:41:40.701Z,24.70
2024-04-01T23:44:07.651Z,27.40
2024-04-01T23:46:34.567Z,28.40
2024-04-01T23:49:01.560Z,26.40
2024-04-01T23:51:28.768Z,21.90
2024-04-01T23:53:56.022Z,22.30
2024-04-01T23:56:23.576Z,27.20
2024-04-01T23:58:51.875Z,26.70
